sensor_id;sensor_type;location;lat;lon;timestamp;temperature;humidity
49236;DHT22;35067;48.134;8.378;2022-09-12T00:01:57;9.00;99.90
49236;DHT22;35067;48.134;8.378;2022-09-12T00:03:59;9.00;99.90
49236;DHT22;35067;48.134;8.378;2022-09-12T00:06:00;8.90;99.90
49236;DHT22;35067;48.134;8.378;2022-09-12T00:08:01;8.90;99.90
49236;DHT22;35067;48.134;8.378;2022-09-12T00:10:02;8.90;99.90
49236;DHT22;35067;48.134;8.378;2022-09-12T00:12:03;8.80;99.90
49236;DHT22;35067;48.134;8.378;2022-09-12T00:14:04;8.80;99.90
49236;DHT22;35067;48.134;8.378;2022-09-12T00:16:05;8.80;99.90
49236;DHT22;35067;48.134;8.378;2022-09-12T00:18:07;8.80;99.90
49236;DHT22;35067;48.134;8.378;2022-09-12T00:20:09;8.80;99.90
49236;DHT22;35067;48.134;8.378;2022-09-12T00:22:10;8.80;99.90
49236;DHT22;35067;48.134;8.378;2022-09-12T00:24:11;8.80;99.90
49236;DHT22;35067;48.134;8.378;2022-09-12T00:26:12;8.80;99.90
49236;DHT22;35067;48.134;8.378;2022-09-12T00:28:15;8.80;99.90
49236;DHT22;35067;48.134;8.378;2022-09-12T00:30:16;8.70;99.90
49236;DHT22;35067;48.134;8.378;2022-09-12T00:32:16;8.70;99.90
49236;DHT22;35067;48.134;8.378;2022-09-12T00:34:17;8.70;99.90
49236;DHT22;35067;48.134;8.378;2022-09-12T00:36:20;8.70;99.90
49236;DHT22;35067;48.134;8.378;2022-09-12T00:38:21;8.70;99.90
49236;DHT22;35067;48.134;8.378;2022-09-12T00:40:21;8.60;99.90
49236;DHT22;35067;48.134;8.378;2022-09-12T00:42:22;8.70;99.90
49236;DHT22;35067;48.134;8.378;2022-09-12T00:51:15;8.70;99.90
49236;DHT22;35067;48.134;8.378;2022-09-12T00:53:16;8.80;99.90
49236;DHT22;35067;48.134;8.378;2022-09-12T00:55:26;8.80;99.90
49236;DHT22;35067;48.134;8.378;2022-09-12T00:57:42;8.70;99.90
49236;DHT22;35067;48.134;8.378;2022-09-12T00:59:49;8.70;99.90
49236;DHT22;35067;48.134;8.378;2022-09-12T01:01:51;8.70;99.90
49236;DHT22;35067;48.134;8.378;2022-09-12T01:03:52;8.70;99.90
49236;DHT22;35067;48.134;8.378;2022-09-12T01:06:08;8.60;99.90
49236;DHT22;35067;48.134;8.378;2022-09-12T01:08:11;8.60;99.90
49236;DHT22;35067;48.134;8.378;2022-09-12T01:10:11;8.50;99.90
49236;DHT22;35067;48.134;8.378;2022-09-12T01:12:13;8.50;99.90
49236;DHT22;35067;48.134;8.378;2022-09-12T01:14:16;8.50;99.90
49236;DHT22;35067;48.134;8.378;2022-09-12T01:16:17;8.50;99.90
49236;DHT22;35067;48.134;8.378;2022-09-12T01:18:29;8.50;99.90
49236;DHT22;35067;48.134;8.378;2022-09-12T01:25:30;8.40;99.90
49236;DHT22;35067;48.134;8.378;2022-09-12T01:29:57;8.30;99.90
49236;DHT22;35067;48.134;8.378;2022-09-12T01:34:16;8.30;99.90
49236;DHT22;35067;48.134;8.378;2022-09-12T01:36:36;8.30;99.90
49236;DHT22;35067;48.134;8.378;2022-09-12T01:38:46;8.30;99.90
49236;DHT22;35067;48.134;8.378;2022-09-12T01:43:24;8.30;99.90
49236;DHT22;35067;48.134;8.378;2022-09-12T01:45:27;8.30;99.90
49236;DHT22;35067;48.134;8.378;2022-09-12T01:48:00;8.30;99.90
49236;DHT22;35067;48.134;8.378;2022-09-12T01:50:08;8.30;99.90
49236;DHT22;35067;48.134;8.378;2022-09-12T01:52:23;8.20;99.90
49236;DHT22;35067;48.134;8.378;2022-09-12T01:54:33;8.20;99.90
49236;DHT22;35067;48.134;8.378;2022-09-12T01:56:36;8.20;99.90
49236;DHT22;35067;48.134;8.378;2022-09-12T01:58:44;8.20;99.90
49236;DHT22;35067;48.134;8.378;2022-09-12T02:03:03;8.20;99.90
49236;DHT22;35067;48.134;8.378;2022-09-12T02:05:12;8.20;99.90
49236;DHT22;35067;48.134;8.378;2022-09-12T02:07:19;8.20;99.90
49236;DHT22;35067;48.134;8.378;2022-09-12T02:09:33;8.20;99.90
49236;DHT22;35067;48.134;8.378;2022-09-12T02:11:39;8.10;99.90
49236;DHT22;35067;48.134;8.378;2022-09-12T02:13:55;8.10;99.90
49236;DHT22;35067;48.134;8.378;2022-09-12T02:16:04;8.20;99.90
49236;DHT22;35067;48.134;8.378;2022-09-12T02:18:13;8.20;99.90
49236;DHT22;35067;48.134;8.378;2022-09-12T02:20:21;8.20;99.90
49236;DHT22;35067;48.134;8.378;2022-09-12T02:22:26;8.20;99.90
49236;DHT22;35067;48.134;8.378;2022-09-12T02:24:36;8.20;99.90
49236;DHT22;35067;48.134;8.378;2022-09-12T02:26:50;8.10;99.90
49236;DHT22;35067;48.134;8.378;2022-09-12T02:28:51;8.10;99.90
49236;DHT22;35067;48.134;8.378;2022-09-12T02:33:05;8.00;99.90
49236;DHT22;35067;48.134;8.378;2022-09-12T02:35:24;8.00;99.90
49236;DHT22;35067;48.134;8.378;2022-09-12T02:38:06;7.90;99.90
49236;DHT22;35067;48.134;8.378;2022-09-12T02:40:08;7.90;99.90
49236;DHT22;35067;48.134;8.378;2022-09-12T02:42:09;8.00;99.90
49236;DHT22;35067;48.134;8.378;2022-09-12T02:44:10;8.00;99.90
49236;DHT22;35067;48.134;8.378;2022-09-12T02:46:32;7.90;99.90
49236;DHT22;35067;48.134;8.378;2022-09-12T02:48:38;8.00;99.90
49236;DHT22;35067;48.134;8.378;2022-09-12T02:50:41;7.90;99.90
49236;DHT22;35067;48.134;8.378;2022-09-12T02:52:42;7.90;99.90
49236;DHT22;35067;48.134;8.378;2022-09-12T02:54:43;7.80;99.90
49236;DHT22;35067;48.134;8.378;2022-09-12T02:56:45;7.90;99.90
49236;DHT22;35067;48.134;8.378;2022-09-12T02:58:46;7.80;99.90
49236;DHT22;35067;48.134;8.378;2022-09-12T03:00:57;7.80;99.90
49236;DHT22;35067;48.134;8.378;2022-09-12T03:03:24;7.80;99.90
49236;DHT22;35067;48.134;8.378;2022-09-12T03:12:29;7.70;99.90
49236;DHT22;35067;48.134;8.378;2022-09-12T03:15:21;7.60;99.90
49236;DHT22;35067;48.134;8.378;2022-09-12T03:25:58;7.70;99.90
49236;DHT22;35067;48.134;8.378;2022-09-12T03:28:11;7.70;99.90
49236;DHT22;35067;48.134;8.378;2022-09-12T03:30:13;7.70;99.90
49236;DHT22;35067;48.134;8.378;2022-09-12T03:32:14;7.70;99.90
49236;DHT22;35067;48.134;8.378;2022-09-12T03:34:15;7.70;99.90
49236;DHT22;35067;48.134;8.378;2022-09-12T03:36:21;7.70;99.90
49236;DHT22;35067;48.134;8.378;2022-09-12T03:38:22;7.70;99.90
49236;DHT22;35067;48.134;8.378;2022-09-12T03:40:22;7.70;99.90
49236;DHT22;35067;48.134;8.378;2022-09-12T03:42:23;7.70;99.90
49236;DHT22;35067;48.134;8.378;2022-09-12T03:44:24;7.60;99.90
49236;DHT22;35067;48.134;8.378;2022-09-12T03:46:25;7.60;99.90
49236;DHT22;35067;48.134;8.378;2022-09-12T03:48:25;7.60;99.90
49236;DHT22;35067;48.134;8.378;2022-09-12T03:50:26;7.50;99.90
49236;DHT22;35067;48.134;8.378;2022-09-12T03:52:27;7.50;99.90
49236;DHT22;35067;48.134;8.378;2022-09-12T03:54:27;7.50;99.90
49236;DHT22;35067;48.134;8.378;2022-09-12T03:56:28;7.60;99.90
49236;DHT22;35067;48.134;8.378;2022-09-12T03:58:30;7.60;99.90
49236;DHT22;35067;48.134;8.378;2022-09-12T04:00:30;7.60;99.90
49236;DHT22;35067;48.134;8.378;2022-09-12T04:02:31;7.50;99.90
49236;DHT22;35067;48.134;8.378;2022-09-12T04:04:31;7.50;99.90
49236;DHT22;35067;48.134;8.378;2022-09-12T04:06:32;7.60;99.90
49236;DHT22;35067;48.134;8.378;2022-09-12T04:08:34;7.60;99.90
49236;DHT22;35067;48.134;8.378;2022-09-12T04:10:35;7.60;99.90
49236;DHT22;35067;48.134;8.378;2022-09-12T04:12:35;7.50;99.90
49236;DHT22;35067;48.134;8.378;2022-09-12T04:14:36;7.40;99.90
49236;DHT22;35067;48.134;8.378;2022-09-12T04:16:36;7.40;99.90
49236;DHT22;35067;48.134;8.378;2022-09-12T04:18:37;7.40;99.90
49236;DHT22;35067;48.134;8.378;2022-09-12T04:20:38;7.40;99.90
49236;DHT22;35067;48.134;8.378;2022-09-12T04:22:38;7.40;99.90
49236;DHT22;35067;48.134;8.378;2022-09-12T04:24:39;7.40;99.90
49236;DHT22;35067;48.134;8.378;2022-09-12T04:26:40;7.40;99.90
49236;DHT22;35067;48.134;8.378;2022-09-12T04:28:40;7.30;99.90
49236;DHT22;35067;48.134;8.378;2022-09-12T04:30:41;7.30;99.90
49236;DHT22;35067;48.134;8.378;2022-09-12T04:32:41;7.30;99.90
49236;DHT22;35067;48.134;8.378;2022-09-12T04:34:42;7.40;99.90
49236;DHT22;35067;48.134;8.378;2022-09-12T04:36:42;7.40;99.90
49236;DHT22;35067;48.134;8.378;2022-09-12T04:38:44;7.40;99.90
49236;DHT22;35067;48.134;8.378;2022-09-12T04:40:45;7.40;99.90
49236;DHT22;35067;48.134;8.378;2022-09-12T04:42:46;7.40;99.90
